sensor_id;sensor_type;location;lat;lon;timestamp;pressure;altitude;pressure_sealevel;temperature;humidity
44027;BME280;29696;55.698;37.460;2022-08-27T00:00:09;100125.44;;;20.82;56.30
44027;BME280;29696;55.698;37.460;2022-08-27T00:02:38;100124.81;;;20.80;56.40
44027;BME280;29696;55.698;37.460;2022-08-27T00:05:05;100119.16;;;20.75;56.71
44027;BME280;29696;55.698;37.460;2022-08-27T00:07:31;100117.28;;;20.75;56.36
44027;BME280;29696;55.698;37.460;2022-08-27T00:09:58;100129.91;;;20.75;55.16
44027;BME280;29696;55.698;37.460;2022-08-27T00:12:24;100128.25;;;20.74;55.40
44027;BME280;29696;55.698;37.460;2022-08-27T00:14:51;100123.53;;;20.76;55.29
44027;BME280;29696;55.698;37.460;2022-08-27T00:17:17;100117.88;;;20.71;55.99
44027;BME280;29696;55.698;37.460;2022-08-27T00:19:43;100119.53;;;20.72;56.14
44027;BME280;29696;55.698;37.460;2022-08-27T00:22:10;100115.56;;;20.68;56.15
44027;BME280;29696;55.698;37.460;2022-08-27T00:24:37;100121.69;;;20.62;57.07
44027;BME280;29696;55.698;37.460;2022-08-27T00:27:04;100127.81;;;20.56;57.64
44027;BME280;29696;55.698;37.460;2022-08-27T00:29:30;100128.53;;;20.49;58.17
44027;BME280;29696;55.698;37.460;2022-08-27T00:31:56;100123.53;;;20.46;58.38
44027;BME280;29696;55.698;37.460;2022-08-27T00:34:24;100122.03;;;20.44;57.55
44027;BME280;29696;55.698;37.460;2022-08-27T00:36:51;100126.75;;;20.42;58.09
44027;BME280;29696;55.698;37.460;2022-08-27T00:39:18;100127.13;;;20.39;57.92
44027;BME280;29696;55.698;37.460;2022-08-27T00:41:45;100124.66;;;20.37;57.73
44027;BME280;29696;55.698;37.460;2022-08-27T00:44:12;100124.81;;;20.36;58.04
44027;BME280;29696;55.698;37.460;2022-08-27T00:46:48;100128.34;;;20.36;58.59
44027;BME280;29696;55.698;37.460;2022-08-27T00:49:20;100128.91;;;20.32;58.10
44027;BME280;29696;55.698;37.460;2022-08-27T00:55:16;100129.91;;;20.30;58.87
44027;BME280;29696;55.698;37.460;2022-08-27T00:57:52;100129.81;;;20.24;59.28
44027;BME280;29696;55.698;37.460;2022-08-27T01:00:21;100131.59;;;20.17;59.37
44027;BME280;29696;55.698;37.460;2022-08-27T01:02:48;100130.25;;;20.13;57.94
44027;BME280;29696;55.698;37.460;2022-08-27T01:05:17;100128.06;;;20.16;57.05
44027;BME280;29696;55.698;37.460;2022-08-27T01:07:46;100128.69;;;20.18;57.31
44027;BME280;29696;55.698;37.460;2022-08-27T01:10:19;100134.06;;;20.18;56.30
44027;BME280;29696;55.698;37.460;2022-08-27T01:12:46;100130.63;;;20.24;55.97
44027;BME280;29696;55.698;37.460;2022-08-27T01:15:15;100130.47;;;20.26;56.16
44027;BME280;29696;55.698;37.460;2022-08-27T01:17:43;100141.22;;;20.26;56.96
44027;BME280;29696;55.698;37.460;2022-08-27T01:20:20;100142.88;;;20.27;57.51
44027;BME280;29696;55.698;37.460;2022-08-27T01:25:58;100143.50;;;20.14;57.93
44027;BME280;29696;55.698;37.460;2022-08-27T01:28:25;100144.03;;;20.10;58.67
44027;BME280;29696;55.698;37.460;2022-08-27T01:30:52;100134.41;;;20.00;59.61
44027;BME280;29696;55.698;37.460;2022-08-27T01:33:20;100147.06;;;19.92;59.25
44027;BME280;29696;55.698;37.460;2022-08-27T01:35:49;100151.97;;;19.88;58.63
44027;BME280;29696;55.698;37.460;2022-08-27T01:38:16;100149.66;;;19.85;58.58
44027;BME280;29696;55.698;37.460;2022-08-27T01:40:43;100142.63;;;19.84;58.50
44027;BME280;29696;55.698;37.460;2022-08-27T01:43:10;100141.63;;;19.85;59.10
44027;BME280;29696;55.698;37.460;2022-08-27T01:45:39;100138.94;;;19.85;59.18
44027;BME280;29696;55.698;37.460;2022-08-27T01:48:10;100148.16;;;19.82;59.69
44027;BME280;29696;55.698;37.460;2022-08-27T01:50:38;100148.72;;;19.78;60.96
44027;BME280;29696;55.698;37.460;2022-08-27T01:53:08;100147.41;;;19.74;60.44
44027;BME280;29696;55.698;37.460;2022-08-27T01:55:34;100145.91;;;19.71;60.81
44027;BME280;29696;55.698;37.460;2022-08-27T01:58:01;100146.47;;;19.67;59.93
44027;BME280;29696;55.698;37.460;2022-08-27T02:00:31;100147.13;;;19.69;59.92
44027;BME280;29696;55.698;37.460;2022-08-27T02:02:58;100150.19;;;19.66;58.14
44027;BME280;29696;55.698;37.460;2022-08-27T02:05:26;100150.50;;;19.63;58.63
44027;BME280;29696;55.698;37.460;2022-08-27T02:07:52;100140.44;;;19.65;58.58
44027;BME280;29696;55.698;37.460;2022-08-27T02:10:24;100153.50;;;19.68;59.04
44027;BME280;29696;55.698;37.460;2022-08-27T02:12:50;100148.19;;;19.59;58.44
44027;BME280;29696;55.698;37.460;2022-08-27T02:15:18;100146.69;;;19.57;58.42
44027;BME280;29696;55.698;37.460;2022-08-27T02:17:45;100149.00;;;19.60;58.16
44027;BME280;29696;55.698;37.460;2022-08-27T02:20:12;100152.06;;;19.57;59.08
44027;BME280;29696;55.698;37.460;2022-08-27T02:22:39;100154.38;;;19.60;57.95
44027;BME280;29696;55.698;37.460;2022-08-27T02:25:08;100160.56;;;19.60;57.88
44027;BME280;29696;55.698;37.460;2022-08-27T02:27:35;100152.88;;;19.57;58.02
44027;BME280;29696;55.698;37.460;2022-08-27T02:30:01;100152.22;;;19.55;57.93
44027;BME280;29696;55.698;37.460;2022-08-27T02:32:29;100155.72;;;19.56;57.96
44027;BME280;29696;55.698;37.460;2022-08-27T02:34:55;100151.84;;;19.58;56.62
44027;BME280;29696;55.698;37.460;2022-08-27T02:37:22;100157.19;;;19.67;56.11
44027;BME280;29696;55.698;37.460;2022-08-27T02:39:48;100149.97;;;19.67;56.57
44027;BME280;29696;55.698;37.460;2022-08-27T02:42:15;100151.47;;;19.70;57.49
44027;BME280;29696;55.698;37.460;2022-08-27T02:44:41;100155.44;;;19.74;56.21
44027;BME280;29696;55.698;37.460;2022-08-27T02:47:08;100161.66;;;19.74;57.90
44027;BME280;29696;55.698;37.460;2022-08-27T02:49:35;100156.47;;;19.73;58.11
44027;BME280;29696;55.698;37.460;2022-08-27T02:52:01;100159.31;;;19.71;58.95
44027;BME280;29696;55.698;37.460;2022-08-27T02:54:29;100166.38;;;19.72;58.72
44027;BME280;29696;55.698;37.460;2022-08-27T02:56:55;100165.91;;;19.69;58.78
44027;BME280;29696;55.698;37.460;2022-08-27T02:59:22;100174.31;;;19.66;59.12
44027;BME280;29696;55.698;37.460;2022-08-27T03:01:48;100172.44;;;19.66;57.67
44027;BME280;29696;55.698;37.460;2022-08-27T03:04:15;100174.94;;;19.68;57.24
44027;BME280;29696;55.698;37.460;2022-08-27T03:06:43;100176.91;;;19.74;58.38
44027;BME280;29696;55.698;37.460;2022-08-27T03:09:09;100166.47;;;19.79;57.48
44027;BME280;29696;55.698;37.460;2022-08-27T03:11:36;100167.41;;;19.86;57.93
44027;BME280;29696;55.698;37.460;2022-08-27T03:14:02;100173.25;;;19.90;58.49
44027;BME280;29696;55.698;37.460;2022-08-27T03:16:29;100187.31;;;19.92;58.83
44027;BME280;29696;55.698;37.460;2022-08-27T03:18:58;100182.28;;;20.12;57.18
44027;BME280;29696;55.698;37.460;2022-08-27T03:21:24;100187.41;;;20.66;55.20
44027;BME280;29696;55.698;37.460;2022-08-27T03:23:51;100190.66;;;21.27;53.84
44027;BME280;29696;55.698;37.460;2022-08-27T03:26:18;100182.50;;;21.78;52.42
44027;BME280;29696;55.698;37.460;2022-08-27T03:28:45;100188.69;;;22.28;51.09
44027;BME280;29696;55.698;37.460;2022-08-27T03:31:17;100178.88;;;22.90;49.84
44027;BME280;29696;55.698;37.460;2022-08-27T03:33:56;100194.19;;;23.31;48.93
44027;BME280;29696;55.698;37.460;2022-08-27T03:36:24;100188.06;;;23.71;48.12
44027;BME280;29696;55.698;37.460;2022-08-27T03:38:50;100184.72;;;24.15;46.83
44027;BME280;29696;55.698;37.460;2022-08-27T03:41:18;100187.78;;;24.58;44.71
44027;BME280;29696;55.698;37.460;2022-08-27T03:43:45;100181.91;;;25.26;42.89
44027;BME280;29696;55.698;37.460;2022-08-27T03:46:11;100183.50;;;25.66;42.56
44027;BME280;29696;55.698;37.460;2022-08-27T03:48:37;100177.31;;;26.15;41.01
44027;BME280;29696;55.698;37.460;2022-08-27T03:51:10;100192.88;;;26.63;39.97
44027;BME280;29696;55.698;37.460;2022-08-27T03:53:38;100183.56;;;26.78;39.95
44027;BME280;29696;55.698;37.460;2022-08-27T03:56:05;100187.13;;;27.08;38.16
44027;BME280;29696;55.698;37.460;2022-08-27T03:58:33;100188.38;;;27.54;37.31
44027;BME280;29696;55.698;37.460;2022-08-27T04:00:59;100181.16;;;28.14;35.70
44027;BME280;29696;55.698;37.460;2022-08-27T04:03:26;100184.03;;;28.83;34.66
44027;BME280;29696;55.698;37.460;2022-08-27T04:05:54;100188.13;;;29.09;34.45
44027;BME280;29696;55.698;37.460;2022-08-27T04:08:22;100191.53;;;29.45;33.91
44027;BME280;29696;55.698;37.460;2022-08-27T04:10:50;100185.31;;;29.95;32.29
44027;BME280;29696;55.698;37.460;2022-08-27T04:13:17;100188.84;;;30.68;31.93
44027;BME280;29696;55.698;37.460;2022-08-27T04:15:48;100190.31;;;31.47;30.98
44027;BME280;29696;55.698;37.460;2022-08-27T04:18:16;100194.91;;;31.68;29.16
44027;BME280;29696;55.698;37.460;2022-08-27T04:20:46;100187.06;;;32.14;28.50
44027;BME280;29696;55.698;37.460;2022-08-27T04:23:14;100183.31;;;32.31;27.95
44027;BME280;29696;55.698;37.460;2022-08-27T04:25:41;100188.00;;;32.83;27.55
44027;BME280;29696;55.698;37.460;2022-08-27T04:28:09;100192.25;;;33.41;26.88
44027;BME280;29696;55.698;37.460;2022-08-27T04:30:40;100193.97;;;34.14;26.61
44027;BME280;29696;55.698;37.460;2022-08-27T04:33:07;100180.75;;;34.42;25.91
44027;BME280;29696;55.698;37.460;2022-08-27T04:35:34;100186.03;;;34.98;25.19
44027;BME280;29696;55.698;37.460;2022-08-27T04:38:00;100184.00;;;35.19;24.58
44027;BME280;29696;55.698;37.460;2022-08-27T04:40:27;100186.50;;;35.15;24.46
44027;BME280;29696;55.698;37.460;2022-08-27T04:43:13;100187.13;;;35.47;23.94
44027;BME280;29696;55.698;37.460;2022-08-27T04:45:46;100190.00;;;36.05;23.64
44027;BME280;29696;55.698;37.460;2022-08-27T04:48:16;100197.53;;;36.71;23.08
44027;BME280;29696;55.698;37.460;2022-08-27T04:50:44;100195.09;;;36.89;22.16
44027;BME280;29696;55.698;37.460;2022-08-27T04:53:12;100196.63;;;37.00;22.34
44027;BME280;29696;55.698;37.460;2022-08-27T04:55:41;100206.22;;;37.21;22.16
44027;BME280;29696;55.698;37.460;2022-08-27T04:58:08;100206.22;;;37.59;21.46
44027;BME280;29696;55.698;37.460;2022-08-27T05:00:46;100196.66;;;38.50;22.51
44027;BME280;29696;55.698;37.460;2022-08-27T05:03:15;100190.91;;;39.01;20.54
44027;BME280;29696;55.698;37.460;2022-08-27T05:05:42;100195.28;;;39.16;19.69
44027;BME280;29696;55.698;37.460;2022-08-27T05:08:09;100191.22;;;39.36;19.17
44027;BME280;29696;55.698;37.460;2022-08-27T05:10:42;100200.34;;;39.59;19.35
44027;BME280;29696;55.698;37.460;2022-08-27T05:13:10;100203.00;;;39.64;18.95
44027;BME280;29696;55.698;37.460;2022-08-27T05:15:38;100201.59;;;40.29;18.16
44027;BME280;29696;55.698;37.460;2022-08-27T05:18:06;100202.34;;;41.10;18.26
44027;BME280;29696;55.698;37.460;2022-08-27T05:20:39;100198.25;;;40.90;18.65
44027;BME280;29696;55.698;37.460;2022-08-27T05:23:06;100195.78;;;40.08;17.65
44027;BME280;29696;55.698;37.460;2022-08-27T05:25:37;100195.03;;;40.48;17.91
44027;BME280;29696;55.698;37.460;2022-08-27T05:28:03;100193.91;;;40.17;17.75
44027;BME280;29696;55.698;37.460;2022-08-27T05:30:34;100200.91;;;41.21;17.79
44027;BME280;29696;55.698;37.460;2022-08-27T05:33:01;100203.47;;;41.00;17.33
44027;BME280;29696;55.698;37.460;2022-08-27T05:35:28;100189.50;;;41.14;16.83
44027;BME280;29696;55.698;37.460;2022-08-27T05:37:56;100193.84;;;40.97;16.99
44027;BME280;29696;55.698;37.460;2022-08-27T05:40:22;100194.47;;;40.86;17.32
44027;BME280;29696;55.698;37.460;2022-08-27T05:42:48;100196.94;;;40.96;16.93
44027;BME280;29696;55.698;37.460;2022-08-27T05:45:15;100192.88;;;41.19;16.69
44027;BME280;29696;55.698;37.460;2022-08-27T05:47:42;100189.59;;;41.78;16.04
44027;BME280;29696;55.698;37.460;2022-08-27T05:50:08;100188.81;;;41.69;16.06
44027;BME280;29696;55.698;37.460;2022-08-27T05:52:35;100196.72;;;42.52;15.55
44027;BME280;29696;55.698;37.460;2022-08-27T05:55:01;100183.66;;;43.03;15.25
44027;BME280;29696;55.698;37.460;2022-08-27T05:57:29;100183.78;;;43.07;15.09
44027;BME280;29696;55.698;37.460;2022-08-27T05:59:55;100186.25;;;43.50;14.18
44027;BME280;29696;55.698;37.460;2022-08-27T06:02:41;100185.31;;;42.75;14.73
44027;BME280;29696;55.698;37.460;2022-08-27T06:05:08;100192.44;;;42.16;15.46
44027;BME280;29696;55.698;37.460;2022-08-27T06:07:35;100193.81;;;42.02;15.42
44027;BME280;29696;55.698;37.460;2022-08-27T06:10:03;100186.66;;;41.92;15.80
44027;BME280;29696;55.698;37.460;2022-08-27T06:12:32;100185.09;;;42.12;15.68
44027;BME280;29696;55.698;37.460;2022-08-27T06:15:00;100187.44;;;42.01;15.48
44027;BME280;29696;55.698;37.460;2022-08-27T06:17:27;100189.69;;;42.55;14.99
44027;BME280;29696;55.698;37.460;2022-08-27T06:19:54;100179.41;;;43.06;15.11
44027;BME280;29696;55.698;37.460;2022-08-27T06:22:20;100174.44;;;43.12;14.77
44027;BME280;29696;55.698;37.460;2022-08-27T06:24:46;100173.22;;;43.42;14.80
44027;BME280;29696;55.698;37.460;2022-08-27T06:27:15;100186.38;;;42.91;14.44
44027;BME280;29696;55.698;37.460;2022-08-27T06:29:43;100190.31;;;42.31;14.83
44027;BME280;29696;55.698;37.460;2022-08-27T06:32:11;100185.06;;;41.65;15.39
44027;BME280;29696;55.698;37.460;2022-08-27T06:34:38;100178.38;;;41.31;15.42
44027;BME280;29696;55.698;37.460;2022-08-27T06:37:05;100181.44;;;41.82;15.46
44027;BME280;29696;55.698;37.460;2022-08-27T06:39:32;100182.41;;;41.94;14.42
44027;BME280;29696;55.698;37.460;2022-08-27T06:42:01;100180.66;;;41.64;15.34
44027;BME280;29696;55.698;37.460;2022-08-27T06:44:32;100177.72;;;41.60;14.80
44027;BME280;29696;55.698;37.460;2022-08-27T06:46:58;100172.97;;;41.00;14.84
44027;BME280;29696;55.698;37.460;2022-08-27T06:49:25;100172.84;;;41.48;15.06
44027;BME280;29696;55.698;37.460;2022-08-27T06:51:52;100168.06;;;41.75;14.21
44027;BME280;29696;55.698;37.460;2022-08-27T06:54:18;100168.19;;;41.96;14.50
44027;BME280;29696;55.698;37.460;2022-08-27T06:56:45;100176.72;;;42.29;13.96
44027;BME280;29696;55.698;37.460;2022-08-27T06:59:15;100178.91;;;42.06;14.18
44027;BME280;29696;55.698;37.460;2022-08-27T07:01:44;100178.00;;;41.85;13.94
44027;BME280;29696;55.698;37.460;2022-08-27T07:04:15;100176.88;;;41.77;14.41
44027;BME280;29696;55.698;37.460;2022-08-27T07:06:42;100172.81;;;41.74;14.25
44027;BME280;29696;55.698;37.460;2022-08-27T07:09:08;100168.03;;;42.01;14.47
44027;BME280;29696;55.698;37.460;2022-08-27T07:11:35;100162.41;;;42.48;13.67
44027;BME280;29696;55.698;37.460;2022-08-27T07:14:01;100163.53;;;43.27;12.81
44027;BME280;29696;55.698;37.460;2022-08-27T07:16:28;100163.91;;;43.59;13.01
44027;BME280;29696;55.698;37.460;2022-08-27T07:18:57;100175.97;;;43.63;13.26
44027;BME280;29696;55.698;37.460;2022-08-27T07:21:24;100167.19;;;43.19;13.38
44027;BME280;29696;55.698;37.460;2022-08-27T07:23:52;100171.78;;;43.57;13.34
44027;BME280;29696;55.698;37.460;2022-08-27T07:26:20;100168.56;;;43.67;12.82
44027;BME280;29696;55.698;37.460;2022-08-27T07:28:48;100161.75;;;43.77;13.26
44027;BME280;29696;55.698;37.460;2022-08-27T07:31:17;100166.31;;;43.06;14.60
44027;BME280;29696;55.698;37.460;2022-08-27T07:33:44;100157.16;;;42.85;14.52
44027;BME280;29696;55.698;37.460;2022-08-27T07:36:11;100154.78;;;43.17;14.56
44027;BME280;29696;55.698;37.460;2022-08-27T07:38:37;100154.56;;;43.01;13.88
44027;BME280;29696;55.698;37.460;2022-08-27T07:41:09;100166.28;;;43.82;13.83
44027;BME280;29696;55.698;37.460;2022-08-27T07:43:36;100156.84;;;43.62;13.54
44027;BME280;29696;55.698;37.460;2022-08-27T07:46:22;100154.81;;;43.83;13.47
44027;BME280;29696;55.698;37.460;2022-08-27T07:48:49;100173.28;;;43.34;13.13
44027;BME280;29696;55.698;37.460;2022-08-27T07:51:18;100166.94;;;42.23;13.82
44027;BME280;29696;55.698;37.460;2022-08-27T07:53:46;100163.88;;;41.17;14.52
44027;BME280;29696;55.698;37.460;2022-08-27T07:56:12;100162.84;;;40.87;13.94
44027;BME280;29696;55.698;37.460;2022-08-27T07:58:39;100152.59;;;40.78;14.20
44027;BME280;29696;55.698;37.460;2022-08-27T08:01:06;100159.94;;;40.34;14.58
44027;BME280;29696;55.698;37.460;2022-08-27T08:03:33;100161.09;;;40.33;14.43
44027;BME280;29696;55.698;37.460;2022-08-27T08:06:11;100158.25;;;40.65;13.98
44027;BME280;29696;55.698;37.460;2022-08-27T08:08:38;100158.88;;;39.59;15.10
44027;BME280;29696;55.698;37.460;2022-08-27T08:11:07;100169.03;;;38.64;15.27
44027;BME280;29696;55.698;37.460;2022-08-27T08:13:34;100140.84;;;38.39;15.76
44027;BME280;29696;55.698;37.460;2022-08-27T08:16:00;100144.50;;;38.21;15.94
44027;BME280;29696;55.698;37.460;2022-08-27T08:18:27;100143.94;;;37.91;15.98
44027;BME280;29696;55.698;37.460;2022-08-27T08:21:06;100157.59;;;38.56;15.58
44027;BME280;29696;55.698;37.460;2022-08-27T08:23:33;100147.47;;;37.78;16.09
44027;BME280;29696;55.698;37.460;2022-08-27T08:26:00;100150.94;;;37.69;16.36
44027;BME280;29696;55.698;37.460;2022-08-27T08:28:27;100145.44;;;36.94;16.44
44027;BME280;29696;55.698;37.460;2022-08-27T08:30:56;100141.00;;;36.02;17.46
44027;BME280;29696;55.698;37.460;2022-08-27T08:33:23;100146.50;;;35.38;17.47
44027;BME280;29696;55.698;37.460;2022-08-27T08:35:50;100138.91;;;34.75;18.67
44027;BME280;29696;55.698;37.460;2022-08-27T08:38:17;100136.66;;;34.18;18.50
44027;BME280;29696;55.698;37.460;2022-08-27T08:40:49;100144.06;;;34.02;19.07
44027;BME280;29696;55.698;37.460;2022-08-27T08:43:26;100130.66;;;33.59;19.78
44027;BME280;29696;55.698;37.460;2022-08-27T08:45:56;100132.00;;;33.16;20.35
44027;BME280;29696;55.698;37.460;2022-08-27T08:48:26;100127.31;;;33.01;20.41
44027;BME280;29696;55.698;37.460;2022-08-27T08:51:01;100130.31;;;33.00;20.32
44027;BME280;29696;55.698;37.460;2022-08-27T08:54:01;100132.84;;;33.27;20.11
44027;BME280;29696;55.698;37.460;2022-08-27T08:56:42;100124.88;;;33.20;20.70
44027;BME280;29696;55.698;37.460;2022-08-27T08:59:15;100133.81;;;32.90;20.38
44027;BME280;29696;55.698;37.460;2022-08-27T09:01:44;100134.59;;;32.70;20.63
44027;BME280;29696;55.698;37.460;2022-08-27T09:04:11;100122.22;;;32.52;20.31
44027;BME280;29696;55.698;37.460;2022-08-27T09:10:31;100113.41;;;32.45;20.87
44027;BME280;29696;55.698;37.460;2022-08-27T09:13:02;100118.47;;;32.21;21.14
44027;BME280;29696;55.698;37.460;2022-08-27T09:15:33;100122.44;;;31.98;21.61
44027;BME280;29696;55.698;37.460;2022-08-27T09:18:25;100118.44;;;32.11;20.86
44027;BME280;29696;55.698;37.460;2022-08-27T09:21:00;100118.03;;;31.92;21.35
44027;BME280;29696;55.698;37.460;2022-08-27T09:23:57;100109.63;;;32.03;21.15
44027;BME280;29696;55.698;37.460;2022-08-27T09:26:29;100115.16;;;31.71;21.83
44027;BME280;29696;55.698;37.460;2022-08-27T09:29:04;100110.22;;;31.73;21.72
44027;BME280;29696;55.698;37.460;2022-08-27T09:32:07;100109.50;;;31.88;21.31
44027;BME280;29696;55.698;37.460;2022-08-27T09:34:39;100108.59;;;31.72;21.74
44027;BME280;29696;55.698;37.460;2022-08-27T09:37:18;100112.56;;;31.92;21.32
44027;BME280;29696;55.698;37.460;2022-08-27T09:40:20;100122.44;;;31.98;21.86
44027;BME280;29696;55.698;37.460;2022-08-27T09:45:58;100109.00;;;31.59;21.65
44027;BME280;29696;55.698;37.460;2022-08-27T09:48:28;100108.78;;;31.60;21.92
44027;BME280;29696;55.698;37.460;2022-08-27T09:50:58;100101.09;;;31.57;21.60
44027;BME280;29696;55.698;37.460;2022-08-27T09:53:43;100114.09;;;31.82;22.25
44027;BME280;29696;55.698;37.460;2022-08-27T09:59:22;100133.34;;;31.60;22.33
44027;BME280;29696;55.698;37.460;2022-08-27T10:04:47;100112.50;;;31.49;22.65
44027;BME280;29696;55.698;37.460;2022-08-27T10:13:50;100116.91;;;31.50;22.66
44027;BME280;29696;55.698;37.460;2022-08-27T10:36:46;100096.28;;;31.70;22.81
44027;BME280;29696;55.698;37.460;2022-08-27T10:47:54;100097.84;;;31.98;22.53
44027;BME280;29696;55.698;37.460;2022-08-27T10:50:44;100094.59;;;32.06;22.08
44027;BME280;29696;55.698;37.460;2022-08-27T10:53:38;100085.94;;;32.24;21.99
44027;BME280;29696;55.698;37.460;2022-08-27T10:56:18;100088.00;;;32.44;22.22
44027;BME280;29696;55.698;37.460;2022-08-27T11:05:00;100077.22;;;32.22;22.77
44027;BME280;29696;55.698;37.460;2022-08-27T11:07:32;100078.28;;;32.16;22.33
44027;BME280;29696;55.698;37.460;2022-08-27T11:10:06;100079.91;;;32.17;22.44
44027;BME280;29696;55.698;37.460;2022-08-27T11:12:37;100081.53;;;32.18;22.36
44027;BME280;29696;55.698;37.460;2022-08-27T11:15:16;100091.41;;;32.19;22.43
44027;BME280;29696;55.698;37.460;2022-08-27T11:18:13;100091.13;;;32.21;22.46
44027;BME280;29696;55.698;37.460;2022-08-27T11:21:01;100094.16;;;32.24;22.65
44027;BME280;29696;55.698;37.460;2022-08-27T11:23:54;100079.91;;;32.17;21.56
44027;BME280;29696;55.698;37.460;2022-08-27T11:26:22;100070.38;;;31.82;21.98
44027;BME280;29696;55.698;37.460;2022-08-27T11:28:54;100076.25;;;31.96;22.35
44027;BME280;29696;55.698;37.460;2022-08-27T11:31:46;100075.50;;;32.11;22.58
44027;BME280;29696;55.698;37.460;2022-08-27T11:37:59;100089.00;;;32.33;22.87
44027;BME280;29696;55.698;37.460;2022-08-27T11:41:34;100073.94;;;32.25;23.59
44027;BME280;29696;55.698;37.460;2022-08-27T11:43:41;100073.88;;;32.10;23.29
44027;BME280;29696;55.698;37.460;2022-08-27T11:46:09;100067.31;;;32.11;23.55
44027;BME280;29696;55.698;37.460;2022-08-27T11:48:42;100068.44;;;32.20;22.90
44027;BME280;29696;55.698;37.460;2022-08-27T11:51:33;100062.75;;;32.32;23.54
44027;BME280;29696;55.698;37.460;2022-08-27T11:54:21;100061.28;;;32.04;23.66
44027;BME280;29696;55.698;37.460;2022-08-27T11:56:48;100056.31;;;31.96;23.46
44027;BME280;29696;55.698;37.460;2022-08-27T11:59:41;100052.91;;;32.31;23.40
44027;BME280;29696;55.698;37.460;2022-08-27T12:02:20;100051.47;;;32.18;22.91
44027;BME280;29696;55.698;37.460;2022-08-27T12:04:47;100040.75;;;32.01;23.37
44027;BME280;29696;55.698;37.460;2022-08-27T12:07:35;100048.81;;;32.39;23.04
44027;BME280;29696;55.698;37.460;2022-08-27T12:10:27;100035.44;;;32.42;23.02
44027;BME280;29696;55.698;37.460;2022-08-27T12:13:44;100044.72;;;32.41;22.78
44027;BME280;29696;55.698;37.460;2022-08-27T12:16:34;100040.06;;;32.32;22.97
44027;BME280;29696;55.698;37.460;2022-08-27T12:25:57;100044.22;;;31.92;22.68
44027;BME280;29696;55.698;37.460;2022-08-27T12:28:25;100034.84;;;31.77;23.22
44027;BME280;29696;55.698;37.460;2022-08-27T12:30:53;100030.47;;;31.76;22.60
44027;BME280;29696;55.698;37.460;2022-08-27T12:33:39;100028.41;;;31.94;22.87
44027;BME280;29696;55.698;37.460;2022-08-27T12:36:15;100027.19;;;31.79;23.00
44027;BME280;29696;55.698;37.460;2022-08-27T12:38:48;100026.91;;;31.76;22.77
44027;BME280;29696;55.698;37.460;2022-08-27T12:41:35;100031.41;;;31.97;22.22
44027;BME280;29696;55.698;37.460;2022-08-27T12:44:09;100025.59;;;31.83;23.01
44027;BME280;29696;55.698;37.460;2022-08-27T12:46:48;100022.94;;;31.94;22.99
44027;BME280;29696;55.698;37.460;2022-08-27T12:49:20;100030.03;;;31.90;22.50
44027;BME280;29696;55.698;37.460;2022-08-27T12:51:48;100023.38;;;31.75;22.23
44027;BME280;29696;55.698;37.460;2022-08-27T12:57:48;100021.72;;;31.79;20.82
44027;BME280;29696;55.698;37.460;2022-08-27T13:00:19;100019.91;;;31.48;21.43
44027;BME280;29696;55.698;37.460;2022-08-27T13:03:46;100018.13;;;31.69;21.79
44027;BME280;29696;55.698;37.460;2022-08-27T13:06:30;100023.00;;;31.61;21.84
44027;BME280;29696;55.698;37.460;2022-08-27T13:09:00;100017.06;;;31.32;22.38
44027;BME280;29696;55.698;37.460;2022-08-27T13:11:31;100023.56;;;31.31;22.39
44027;BME280;29696;55.698;37.460;2022-08-27T13:14:10;100020.09;;;31.36;22.45
44027;BME280;29696;55.698;37.460;2022-08-27T13:16:39;100014.81;;;31.24;22.29
44027;BME280;29696;55.698;37.460;2022-08-27T13:19:21;100017.88;;;31.33;21.91
44027;BME280;29696;55.698;37.460;2022-08-27T13:21:49;100008.47;;;31.19;22.35
44027;BME280;29696;55.698;37.460;2022-08-27T13:24:27;100013.75;;;31.30;22.48
44027;BME280;29696;55.698;37.460;2022-08-27T13:26:53;100010.63;;;31.16;22.77
44027;BME280;29696;55.698;37.460;2022-08-27T13:29:20;100013.38;;;31.16;22.24
44027;BME280;29696;55.698;37.460;2022-08-27T13:31:46;100008.13;;;31.10;22.79
44027;BME280;29696;55.698;37.460;2022-08-27T13:34:18;100013.34;;;31.11;21.96
44027;BME280;29696;55.698;37.460;2022-08-27T13:37:00;100006.56;;;31.19;22.27
44027;BME280;29696;55.698;37.460;2022-08-27T13:39:29;100001.44;;;30.96;22.42
44027;BME280;29696;55.698;37.460;2022-08-27T13:41:58;100001.97;;;30.92;22.90
44027;BME280;29696;55.698;37.460;2022-08-27T13:44:31;99997.31;;;30.88;22.94
44027;BME280;29696;55.698;37.460;2022-08-27T13:47:03;100007.06;;;30.84;22.85
44027;BME280;29696;55.698;37.460;2022-08-27T13:49:33;100009.78;;;30.79;23.02
44027;BME280;29696;55.698;37.460;2022-08-27T13:55:02;100008.06;;;30.73;23.04
44027;BME280;29696;55.698;37.460;2022-08-27T13:57:40;100003.34;;;30.68;23.50
44027;BME280;29696;55.698;37.460;2022-08-27T14:00:26;99999.03;;;30.72;23.27
44027;BME280;29696;55.698;37.460;2022-08-27T14:02:53;99997.69;;;30.47;23.21
44027;BME280;29696;55.698;37.460;2022-08-27T14:05:46;100004.63;;;30.60;22.95
44027;BME280;29696;55.698;37.460;2022-08-27T14:08:15;100000.31;;;30.37;23.73
44027;BME280;29696;55.698;37.460;2022-08-27T14:10:45;100002.47;;;30.35;23.60
44027;BME280;29696;55.698;37.460;2022-08-27T14:13:21;99992.88;;;30.33;23.06
44027;BME280;29696;55.698;37.460;2022-08-27T14:15:51;100001.28;;;30.26;23.74
44027;BME280;29696;55.698;37.460;2022-08-27T14:18:31;99994.56;;;30.34;23.54